Time;durP1;ratioP1;P1;durP2;ratioP2;P2;SDS_P1;SDS_P2;PMS_P1;PMS_P2;Temp;Humidity;BMP_temperature;BMP_pressure;BME280_temperature;BME280_humidity;BME280_pressure;Samples;Min_cycle;Max_cycle;Signal;HPM_P1;HPM_P2
2022/01/09 00:01:16;;;;;;;9.30;7.40;;;5.30;99.90;;;;;;5112850;28;20106;-71
2022/01/09 00:03:41;;;;;;;8.20;7.38;;;5.30;99.90;;;;;;5152445;27;20565;-71
2022/01/09 00:06:08;;;;;;;8.23;6.72;;;5.30;99.90;;;;;;5158149;27;20056;-71
2022/01/09 00:08:34;;;;;;;8.45;7.18;;;5.50;99.90;;;;;;5156554;27;20051;-71
2022/01/09 00:11:00;;;;;;;8.30;7.45;;;5.60;99.90;;;;;;5098353;28;20044;-71
2022/01/09 00:13:26;;;;;;;9.23;7.38;;;5.40;99.90;;;;;;5121592;28;20047;-71
2022/01/09 00:15:51;;;;;;;9.00;7.20;;;5.40;99.90;;;;;;5115812;28;20036;-71
2022/01/09 00:18:17;;;;;;;9.52;8.32;;;5.40;99.90;;;;;;5120670;28;20051;-71
2022/01/09 00:20:43;;;;;;;9.00;8.00;;;5.30;99.90;;;;;;5114534;28;20067;-71
2022/01/09 00:23:10;;;;;;;8.38;7.53;;;5.30;99.90;;;;;;5122799;28;20039;-71
2022/01/09 00:25:35;;;;;;;11.63;8.35;;;5.40;99.90;;;;;;5111507;28;20048;-71
2022/01/09 00:28:01;;;;;;;9.27;8.18;;;5.40;99.90;;;;;;5122275;28;20039;-71
2022/01/09 00:30:27;;;;;;;7.72;6.93;;;5.40;99.90;;;;;;5113846;28;20059;-71
2022/01/09 00:32:53;;;;;;;7.03;6.18;;;5.40;99.90;;;;;;5114162;28;20050;-71
2022/01/09 00:35:19;;;;;;;8.40;6.72;;;5.40;99.90;;;;;;5118903;28;20561;-71
2022/01/09 00:37:45;;;;;;;8.32;7.38;;;5.40;99.90;;;;;;5117182;28;20047;-70
2022/01/09 00:40:12;;;;;;;9.75;7.78;;;5.50;99.90;;;;;;5112004;28;20044;-71
2022/01/09 00:42:38;;;;;;;7.72;6.93;;;5.40;99.90;;;;;;5111806;28;20055;-71
2022/01/09 00:45:06;;;;;;;9.45;8.55;;;5.50;99.90;;;;;;5116552;28;20130;-71
2022/01/09 00:47:31;;;;;;;9.15;8.25;;;5.40;99.90;;;;;;5117592;28;20050;-71
2022/01/09 00:49:58;;;;;;;8.52;7.55;;;5.40;99.90;;;;;;5125317;28;20047;-71
2022/01/09 00:52:23;;;;;;;7.80;6.28;;;5.40;99.90;;;;;;5148991;27;20047;-71
2022/01/09 00:54:49;;;;;;;8.02;7.18;;;5.50;99.90;;;;;;5117300;28;20079;-71
2022/01/09 00:57:15;;;;;;;7.72;6.28;;;5.30;99.90;;;;;;5118301;28;20044;-71
2022/01/09 00:59:40;;;;;;;8.93;8.02;;;5.50;99.90;;;;;;5119913;28;20083;-71
2022/01/09 01:02:07;;;;;;;8.43;7.63;;;5.40;99.90;;;;;;5157820;27;20098;-71
2022/01/09 01:04:32;;;;;;;7.53;6.72;;;5.50;99.90;;;;;;5107860;28;20754;-71
2022/01/09 01:06:58;;;;;;;9.10;8.20;;;5.40;99.90;;;;;;5122343;28;20043;-71
2022/01/09 01:09:25;;;;;;;8.55;7.30;;;5.40;99.90;;;;;;5125393;28;20047;-71
2022/01/09 01:11:51;;;;;;;7.82;7.00;;;5.30;99.90;;;;;;5120074;28;20043;-71
2022/01/09 01:14:22;;;;;;;8.32;7.50;;;5.40;99.90;;;;;;5120906;28;20055;-71
2022/01/09 01:16:48;;;;;;;7.50;6.80;;;5.40;99.90;;;;;;5122570;28;20052;-71
2022/01/09 01:19:14;;;;;;;7.10;6.40;;;5.40;99.90;;;;;;5127832;28;20044;-71
2022/01/09 01:21:39;;;;;;;7.63;6.88;;;5.40;99.90;;;;;;5121296;28;20564;-71
2022/01/09 01:24:05;;;;;;;7.72;6.93;;;5.50;99.90;;;;;;5120186;28;20040;-71
2022/01/09 01:26:31;;;;;;;8.05;7.28;;;5.40;99.90;;;;;;5147781;27;20130;-71
2022/01/09 01:28:56;;;;;;;8.60;7.78;;;5.30;99.90;;;;;;5159843;27;20054;-71
2022/01/09 01:31:22;;;;;;;9.23;8.23;;;5.10;99.90;;;;;;5116548;28;20562;-71
2022/01/09 01:33:48;;;;;;;8.70;7.88;;;5.20;99.90;;;;;;5126852;28;20039;-71
2022/01/09 01:36:14;;;;;;;8.52;7.57;;;5.20;99.90;;;;;;5127110;28;20044;-71
2022/01/09 01:38:39;;;;;;;8.93;8.02;;;5.00;99.90;;;;;;5126445;28;20099;-71
2022/01/09 01:41:05;;;;;;;9.90;8.90;;;5.00;99.90;;;;;;5127941;28;20032;-71
2022/01/09 01:43:31;;;;;;;9.50;8.50;;;5.00;99.90;;;;;;5128223;28;20127;-71
2022/01/09 01:46:01;;;;;;;10.35;8.85;;;5.10;99.90;;;;;;5123231;28;20071;-71
2022/01/09 01:48:26;;;;;;;10.07;9.07;;;4.80;99.90;;;;;;5127769;28;20051;-71
2022/01/09 01:50:52;;;;;;;9.80;8.80;;;4.80;99.90;;;;;;5122622;28;20044;-71
2022/01/09 01:53:20;;;;;;;11.55;10.00;;;4.90;99.90;;;;;;5125738;28;20066;-71
2022/01/09 01:55:52;;;;;;;11.13;10.02;;;4.80;99.90;;;;;;5120726;28;20049;-71
2022/01/09 01:58:18;;;;;;;11.13;10.00;;;4.80;99.90;;;;;;5118601;28;20067;-71
2022/01/09 02:00:44;;;;;;;12.05;10.88;;;4.90;99.90;;;;;;5116569;28;20047;-71
2022/01/09 02:03:10;;;;;;;11.30;10.18;;;4.70;99.90;;;;;;5121184;27;20035;-71
2022/01/09 02:05:36;;;;;;;12.15;10.88;;;5.00;99.90;;;;;;5118626;28;20040;-71
2022/01/09 02:08:03;;;;;;;13.40;11.82;;;4.80;99.90;;;;;;5118442;28;20086;-71
2022/01/09 02:10:30;;;;;;;12.05;10.75;;;4.80;99.90;;;;;;5125651;28;20039;-71
2022/01/09 02:12:57;;;;;;;14.48;12.93;;;4.80;99.90;;;;;;5112349;28;20554;-71
2022/01/09 02:15:27;;;;;;;14.30;12.25;;;4.70;99.90;;;;;;5125799;28;20046;-71
2022/01/09 02:17:53;;;;;;;13.73;12.32;;;4.70;99.90;;;;;;5153190;27;20250;-71
2022/01/09 02:20:19;;;;;;;14.80;12.60;;;4.80;99.90;;;;;;5120768;28;20090;-71
2022/01/09 02:22:44;;;;;;;16.67;14.45;;;4.80;99.90;;;;;;5124588;28;20078;-71
2022/01/09 02:25:10;;;;;;;16.38;14.60;;;4.80;99.90;;;;;;5113120;28;20048;-71
2022/01/09 02:27:37;;;;;;;17.15;14.70;;;4.80;99.90;;;;;;5123733;28;20061;-71
2022/01/09 02:30:05;;;;;;;16.63;14.93;;;4.70;99.90;;;;;;5152967;27;20058;-71
2022/01/09 02:32:30;;;;;;;18.63;16.40;;;4.70;99.90;;;;;;5123146;28;20059;-71
2022/01/09 02:34:56;;;;;;;17.45;14.30;;;4.60;99.90;;;;;;5115178;28;20075;-71
2022/01/09 02:37:22;;;;;;;18.83;16.23;;;4.70;99.90;;;;;;5127207;27;20043;-71
2022/01/09 02:39:50;;;;;;;20.55;16.88;;;4.60;99.90;;;;;;5156474;27;20053;-71
2022/01/09 02:42:29;;;;;;;21.80;18.70;;;4.60;99.90;;;;;;5147302;27;20046;-71
2022/01/09 02:44:55;;;;;;;23.38;19.23;;;4.60;99.90;;;;;;5109522;28;20052;-71
2022/01/09 02:47:22;;;;;;;22.63;18.05;;;4.60;99.90;;;;;;5149299;27;20122;-71
2022/01/09 02:49:52;;;;;;;21.85;18.50;;;4.60;99.90;;;;;;5116268;28;20073;-71
2022/01/09 02:57:35;;;;;;;27.60;21.05;;;4.60;99.90;;;;;;5146153;27;20102;-71
2022/01/09 03:00:01;;;;;;;26.90;20.55;;;4.60;99.90;;;;;;5108388;28;20488;-71
2022/01/09 03:02:26;;;;;;;26.75;20.95;;;4.50;99.90;;;;;;5113242;28;20070;-71
2022/01/09 03:04:52;;;;;;;30.25;21.15;;;4.50;99.90;;;;;;5111155;28;20771;-71
2022/01/09 03:07:18;;;;;;;31.70;21.63;;;4.60;99.90;;;;;;5125978;28;20118;-71
2022/01/09 03:09:43;;;;;;;33.50;22.02;;;4.70;99.90;;;;;;5119041;28;20108;-71
2022/01/09 03:12:11;;;;;;;28.98;20.95;;;4.50;99.90;;;;;;5125821;28;20097;-71
2022/01/09 03:14:37;;;;;;;31.08;21.85;;;4.60;99.90;;;;;;5119574;28;20047;-71
2022/01/09 03:17:03;;;;;;;29.67;20.83;;;4.50;99.90;;;;;;5117256;28;20044;-71
2022/01/09 03:19:29;;;;;;;32.45;21.73;;;4.50;99.90;;;;;;5118443;28;20097;-71
2022/01/09 03:21:55;;;;;;;31.45;20.13;;;4.50;99.90;;;;;;5124157;28;20047;-71
2022/01/09 03:24:20;;;;;;;32.45;19.65;;;4.60;99.90;;;;;;5125784;28;20075;-71
2022/01/09 03:26:46;;;;;;;29.55;17.75;;;4.60;99.90;;;;;;5123294;28;20103;-71
2022/01/09 03:29:12;;;;;;;27.35;17.10;;;4.50;99.90;;;;;;5123559;28;20047;-71
2022/01/09 03:31:38;;;;;;;31.70;17.02;;;4.60;99.90;;;;;;5123979;28;20083;-71
2022/01/09 03:34:03;;;;;;;30.17;16.45;;;4.60;99.90;;;;;;5121548;28;20040;-71
2022/01/09 03:36:29;;;;;;;30.83;16.55;;;4.80;99.90;;;;;;5114295;28;20109;-71
2022/01/09 03:38:55;;;;;;;28.90;15.88;;;4.70;99.90;;;;;;5118365;28;20095;-71
2022/01/09 03:41:21;;;;;;;25.83;13.45;;;4.80;99.90;;;;;;5122790;28;20454;-71
2022/01/09 03:43:46;;;;;;;24.50;11.93;;;4.80;99.90;;;;;;5118020;28;20157;-71
2022/01/09 03:46:12;;;;;;;24.33;11.40;;;4.80;99.90;;;;;;5119069;28;20089;-71
2022/01/09 03:48:38;;;;;;;17.63;8.77;;;5.10;99.90;;;;;;5115734;28;20097;-70
2022/01/09 03:51:03;;;;;;;16.98;8.77;;;5.20;99.90;;;;;;5115701;28;20058;-70
2022/01/09 03:53:32;;;;;;;21.38;8.48;;;5.10;99.90;;;;;;5121704;28;20047;-70
2022/01/09 03:55:59;;;;;;;16.15;5.85;;;5.20;99.90;;;;;;5123258;28;20085;-70
2022/01/09 03:58:24;;;;;;;13.52;5.22;;;5.30;99.90;;;;;;5119572;28;20048;-70
2022/01/09 04:00:50;;;;;;;12.30;4.75;;;5.40;99.90;;;;;;5118658;28;20070;-70
2022/01/09 04:03:16;;;;;;;11.60;4.00;;;5.30;99.90;;;;;;5117170;28;20391;-70
2022/01/09 04:05:42;;;;;;;14.13;4.22;;;5.40;99.90;;;;;;5115637;28;20079;-70
2022/01/09 04:08:08;;;;;;;14.95;3.50;;;5.40;99.90;;;;;;5113549;28;20512;-70
2022/01/09 04:10:40;;;;;;;22.10;5.15;;;5.40;99.90;;;;;;5121896;28;20129;-70
2022/01/09 04:13:06;;;;;;;24.17;4.40;;;5.60;99.90;;;;;;5118801;28;20048;-70
2022/01/09 04:15:32;;;;;;;21.67;4.50;;;5.60;99.90;;;;;;5117617;28;20069;-70
2022/01/09 04:17:59;;;;;;;26.92;5.05;;;5.80;99.90;;;;;;5109520;28;20043;-70
2022/01/09 04:20:30;;;;;;;23.63;6.38;;;5.80;99.90;;;;;;5113480;28;20078;-70
2022/01/09 04:22:56;;;;;;;33.10;6.15;;;5.80;99.90;;;;;;5119177;28;20458;-70
2022/01/09 04:25:22;;;;;;;28.75;5.55;;;5.90;99.90;;;;;;5118155;28;20055;-70
2022/01/09 04:27:50;;;;;;;34.58;5.82;;;5.80;99.90;;;;;;5124575;28;20047;-70
2022/01/09 04:30:16;;;;;;;42.55;6.60;;;5.80;99.90;;;;;;5113081;28;20174;-70
2022/01/09 04:32:43;;;;;;;39.92;6.03;;;5.70;99.90;;;;;;5114872;28;20082;-70
2022/01/09 04:35:09;;;;;;;38.90;5.82;;;5.90;99.90;;;;;;5119851;28;20072;-70
2022/01/09 04:37:37;;;;;;;41.35;6.95;;;5.90;99.90;;;;;;5116844;28;20069;-70
2022/01/09 04:40:05;;;;;;;45.47;5.72;;;5.80;99.90;;;;;;5118317;28;20048;-70
2022/01/09 04:42:39;;;;;;;40.90;5.93;;;5.90;99.90;;;;;;5127712;28;20078;-70
2022/01/09 04:45:07;;;;;;;41.22;7.00;;;6.00;99.90;;;;;;5126535;28;20078;-70
2022/01/09 04:47:32;;;;;;;36.22;5.63;;;6.10;99.90;;;;;;5128650;28;20082;-70
2022/01/09 04:49:59;;;;;;;41.28;5.28;;;6.10;99.90;;;;;;5128559;28;20035;-70
2022/01/09 04:52:30;;;;;;;39.50;5.50;;;6.10;99.90;;;;;;5111884;28;20043;-70
2022/01/09 04:54:56;;;;;;;40.05;5.53;;;6.10;99.90;;;;;;5118458;28;20031;-70
2022/01/09 04:57:22;;;;;;;33.72;6.63;;;6.10;99.90;;;;;;5122419;28;20702;-69
2022/01/09 04:59:48;;;;;;;39.35;5.78;;;6.30;99.90;;;;;;5128324;28;20051;-70
2022/01/09 05:02:13;;;;;;;36.80;6.25;;;6.20;99.90;;;;;;5124274;28;20036;-70
2022/01/09 05:04:39;;;;;;;30.98;5.45;;;6.20;99.90;;;;;;5117817;28;20506;-70
2022/01/09 05:07:05;;;;;;;34.92;5.88;;;6.10;99.90;;;;;;5128393;28;20042;-69
2022/01/09 05:09:30;;;;;;;48.50;6.18;;;6.10;99.90;;;;;;5127241;28;20568;-70
2022/01/09 05:11:57;;;;;;;45.47;5.97;;;6.10;99.90;;;;;;5121132;28;20188;-70
2022/01/09 05:14:23;;;;;;;41.35;5.90;;;6.10;99.90;;;;;;5121365;27;20040;-70
2022/01/09 05:16:49;;;;;;;35.63;5.18;;;6.20;99.90;;;;;;5124392;28;20099;-70
2022/01/09 05:19:21;;;;;;;35.92;5.28;;;6.20;99.90;;;;;;5128593;28;20404;-70
2022/01/09 05:21:48;;;;;;;34.33;5.68;;;6.10;99.90;;;;;;5126965;28;20051;-70
2022/01/09 05:24:15;;;;;;;37.42;5.35;;;6.20;99.90;;;;;;5122640;28;20075;-70
2022/01/09 05:26:41;;;;;;;34.20;4.78;;;6.20;99.90;;;;;;5118466;28;20096;-70
2022/01/09 05:29:07;;;;;;;37.28;5.47;;;6.20;99.90;;;;;;5127038;28;20056;-71
2022/01/09 05:31:33;;;;;;;30.83;4.38;;;6.00;99.90;;;;;;5121721;28;20052;-70
2022/01/09 05:33:58;;;;;;;36.80;4.80;;;6.00;99.90;;;;;;5120038;28;20039;-70
2022/01/09 05:36:24;;;;;;;25.98;3.95;;;6.00;99.90;;;;;;5158962;27;20043;-70
2022/01/09 05:38:50;;;;;;;32.38;4.05;;;6.00;99.90;;;;;;5123085;28;20074;-70
2022/01/09 05:41:15;;;;;;;30.23;4.95;;;6.00;99.90;;;;;;5120564;28;20048;-70
2022/01/09 05:43:41;;;;;;;28.13;5.43;;;6.00;99.90;;;;;;5120376;28;20067;-70
2022/01/09 05:46:07;;;;;;;31.50;4.43;;;5.90;99.90;;;;;;5122605;28;20056;-70
2022/01/09 05:48:33;;;;;;;33.25;5.38;;;6.00;99.90;;;;;;5120096;28;20059;-70
2022/01/09 05:50:59;;;;;;;31.25;5.00;;;5.90;99.90;;;;;;5122758;28;20044;-70
2022/01/09 05:53:24;;;;;;;31.58;4.57;;;6.00;99.90;;;;;;5124172;28;20051;-70
2022/01/09 05:55:50;;;;;;;28.30;3.78;;;5.90;99.90;;;;;;5117341;28;20050;-70
2022/01/09 05:58:16;;;;;;;24.33;4.65;;;5.80;99.90;;;;;;5118896;28;20048;-70
2022/01/09 06:00:42;;;;;;;24.60;4.60;;;5.90;99.90;;;;;;5125007;28;20131;-70
2022/01/09 06:03:07;;;;;;;22.88;4.95;;;5.80;99.90;;;;;;5109928;28;20158;-70
2022/01/09 06:05:33;;;;;;;29.70;3.83;;;5.90;99.90;;;;;;5127650;28;20050;-70
2022/01/09 06:07:59;;;;;;;24.05;4.35;;;5.80;99.90;;;;;;5120000;28;20090;-70
2022/01/09 06:10:24;;;;;;;19.58;3.30;;;5.80;99.90;;;;;;5127013;28;20036;-70
2022/01/09 06:12:50;;;;;;;20.50;3.47;;;5.70;99.90;;;;;;5143081;27;20556;-70
2022/01/09 06:15:16;;;;;;;24.38;3.47;;;5.90;99.90;;;;;;5127711;28;20061;-70
2022/01/09 06:17:43;;;;;;;21.10;4.30;;;5.70;99.90;;;;;;5119083;28;20135;-70
2022/01/09 06:20:11;;;;;;;21.83;3.42;;;5.70;99.90;;;;;;5113737;28;20069;-70
2022/01/09 06:22:39;;;;;;;18.92;3.00;;;5.70;99.90;;;;;;5119287;28;20048;-70
2022/01/09 06:25:05;;;;;;;22.25;3.95;;;5.70;99.90;;;;;;5119631;28;20051;-70
2022/01/09 06:27:32;;;;;;;22.52;3.45;;;5.60;99.90;;;;;;5126891;28;20040;-70
2022/01/09 06:29:57;;;;;;;21.48;3.00;;;5.60;99.90;;;;;;5120345;28;20051;-70
2022/01/09 06:32:23;;;;;;;23.35;3.08;;;5.70;99.90;;;;;;5122551;28;20055;-70
2022/01/09 06:34:49;;;;;;;19.98;3.00;;;5.60;99.90;;;;;;5118571;28;20036;-70
2022/01/09 06:37:15;;;;;;;17.25;3.17;;;5.60;99.90;;;;;;5120064;28;20054;-70
2022/01/09 06:39:42;;;;;;;22.27;2.80;;;5.60;99.90;;;;;;5125985;28;20053;-70
2022/01/09 06:42:08;;;;;;;21.55;3.72;;;5.50;99.90;;;;;;5115424;28;20138;-70
2022/01/09 06:44:34;;;;;;;18.77;2.97;;;5.60;99.90;;;;;;5123337;28;20052;-70
2022/01/09 06:46:59;;;;;;;25.65;3.53;;;5.60;99.90;;;;;;5125161;28;20054;-70
2022/01/09 06:49:25;;;;;;;30.85;4.80;;;5.50;99.90;;;;;;5120094;28;20095;-70
2022/01/09 06:51:51;;;;;;;19.55;3.08;;;5.60;99.90;;;;;;5101676;28;20051;-70
2022/01/09 06:54:17;;;;;;;20.42;3.28;;;5.60;99.90;;;;;;5114485;28;20039;-70
2022/01/09 06:56:43;;;;;;;20.17;3.40;;;5.60;99.90;;;;;;5117513;28;20070;-70
2022/01/09 06:59:08;;;;;;;23.00;3.45;;;5.70;99.90;;;;;;5122258;28;20035;-70
2022/01/09 07:01:34;;;;;;;21.58;4.18;;;5.60;99.90;;;;;;5156854;27;20043;-70
2022/01/09 07:04:00;;;;;;;26.15;4.10;;;5.60;99.90;;;;;;5115593;28;20040;-70
2022/01/09 07:06:25;;;;;;;28.77;4.28;;;5.50;99.90;;;;;;5119429;28;20055;-70
2022/01/09 07:08:51;;;;;;;17.13;3.13;;;5.60;99.90;;;;;;5124049;27;20046;-70
2022/01/09 07:11:17;;;;;;;22.27;5.00;;;5.50;99.90;;;;;;5126429;28;20055;-70
2022/01/09 07:13:43;;;;;;;27.83;3.67;;;5.50;99.90;;;;;;5117783;28;20077;-70
2022/01/09 07:16:09;;;;;;;29.02;3.78;;;5.60;99.90;;;;;;5126104;28;20043;-70
2022/01/09 07:18:35;;;;;;;18.15;2.75;;;5.50;99.90;;;;;;5124672;28;20113;-70
2022/01/09 07:21:02;;;;;;;20.77;3.30;;;5.60;99.90;;;;;;5111153;28;20047;-70
2022/01/09 07:23:28;;;;;;;20.83;3.30;;;5.60;99.90;;;;;;5132291;27;20058;-70
2022/01/09 07:25:53;;;;;;;20.77;2.83;;;5.50;99.90;;;;;;5124438;28;20087;-70
2022/01/09 07:28:19;;;;;;;18.60;3.35;;;5.50;99.90;;;;;;5124934;28;20099;-71
2022/01/09 07:30:45;;;;;;;20.67;3.60;;;5.50;99.90;;;;;;5144906;27;20866;-70
2022/01/09 07:33:11;;;;;;;25.48;4.75;;;5.60;99.90;;;;;;5118410;28;20133;-70
2022/01/09 07:35:36;;;;;;;18.75;3.33;;;5.50;99.90;;;;;;5123859;28;20113;-70
2022/01/09 07:38:02;;;;;;;20.00;2.65;;;5.50;99.90;;;;;;5113380;28;20086;-70
2022/01/09 07:40:28;;;;;;;21.90;3.35;;;5.50;99.90;;;;;;5114259;28;20043;-70
2022/01/09 07:42:54;;;;;;;24.55;3.00;;;5.30;99.90;;;;;;5116727;28;20052;-70
2022/01/09 07:45:26;;;;;;;19.10;2.60;;;5.30;99.90;;;;;;5118728;28;20044;-70
2022/01/09 07:47:53;;;;;;;17.52;2.88;;;5.30;99.90;;;;;;5123669;27;20070;-70
2022/01/09 07:50:19;;;;;;;20.20;2.95;;;5.40;99.90;;;;;;5122604;28;20122;-70
2022/01/09 07:52:45;;;;;;;20.73;3.53;;;5.30;99.90;;;;;;5115607;28;20044;-70
2022/01/09 07:55:11;;;;;;;17.85;3.63;;;5.20;99.90;;;;;;5118073;28;20074;-70
2022/01/09 07:57:37;;;;;;;16.45;2.85;;;5.20;99.90;;;;;;5120996;28;20043;-70
2022/01/09 08:00:08;;;;;;;15.25;2.78;;;5.30;99.90;;;;;;5124755;28;20074;-70
2022/01/09 08:02:34;;;;;;;23.13;3.90;;;5.20;99.90;;;;;;5152471;27;20056;-70
2022/01/09 08:05:00;;;;;;;18.25;3.20;;;5.40;99.90;;;;;;5155747;27;20518;-70
2022/01/09 08:07:25;;;;;;;21.25;3.80;;;5.30;99.90;;;;;;5125563;28;20125;-70
2022/01/09 08:09:51;;;;;;;26.13;3.10;;;5.30;99.90;;;;;;5123737;28;20078;-70
2022/01/09 08:12:17;;;;;;;15.93;2.42;;;5.30;99.90;;;;;;5123725;28;20035;-70
2022/01/09 08:14:44;;;;;;;12.30;2.47;;;5.30;99.90;;;;;;5124521;28;20036;-70
2022/01/09 08:17:10;;;;;;;13.75;2.15;;;5.20;99.90;;;;;;5127208;28;20054;-70
2022/01/09 08:19:36;;;;;;;14.15;2.20;;;5.30;99.90;;;;;;5128354;28;20036;-70
2022/01/09 08:22:06;;;;;;;15.40;2.78;;;5.30;99.90;;;;;;5161738;27;20108;-70
2022/01/09 08:24:33;;;;;;;15.82;3.15;;;5.20;99.90;;;;;;5128015;27;20035;-70
2022/01/09 08:26:59;;;;;;;13.90;2.10;;;5.10;99.90;;;;;;5126742;27;20059;-70
2022/01/09 08:29:25;;;;;;;14.77;2.80;;;5.20;99.90;;;;;;5127863;28;20060;-70
2022/01/09 08:31:51;;;;;;;14.05;2.08;;;5.20;99.90;;;;;;5125263;28;20069;-70
2022/01/09 08:34:17;;;;;;;15.25;2.90;;;5.10;99.90;;;;;;5126975;28;20043;-70
2022/01/09 08:36:43;;;;;;;17.17;2.42;;;5.10;99.90;;;;;;5127760;28;20044;-70
2022/01/09 08:39:10;;;;;;;15.82;2.38;;;5.10;99.90;;;;;;5128956;28;20035;-70
2022/01/09 08:41:37;;;;;;;10.38;2.30;;;5.10;99.90;;;;;;5127493;28;20048;-70
2022/01/09 08:44:04;;;;;;;12.10;2.40;;;5.10;99.90;;;;;;5128907;28;20043;-70
2022/01/09 08:46:31;;;;;;;11.75;2.28;;;5.10;99.90;;;;;;5129004;28;20147;-70
2022/01/09 08:49:01;;;;;;;15.40;2.42;;;5.20;99.90;;;;;;5126787;28;20085;-70
2022/01/09 08:51:28;;;;;;;16.83;2.55;;;5.10;99.90;;;;;;5128072;28;20093;-70
2022/01/09 08:53:54;;;;;;;15.65;2.25;;;5.20;99.90;;;;;;5126598;28;20071;-71
2022/01/09 08:56:22;;;;;;;26.20;3.17;;;5.10;99.90;;;;;;5127351;28;20047;-70
2022/01/09 08:58:49;;;;;;;12.23;2.30;;;5.10;99.90;;;;;;5128924;28;20040;-70
2022/01/09 09:01:15;;;;;;;14.60;2.30;;;5.10;99.90;;;;;;5120791;28;20040;-70
2022/01/09 09:03:42;;;;;;;14.18;2.88;;;5.20;99.90;;;;;;5128164;27;20043;-70
2022/01/09 09:06:17;;;;;;;15.82;2.55;;;5.10;99.90;;;;;;5127201;28;20047;-70
2022/01/09 09:08:43;;;;;;;19.77;3.30;;;5.20;99.90;;;;;;5125476;28;20039;-70
2022/01/09 09:11:11;;;;;;;18.85;3.78;;;5.20;99.90;;;;;;5121698;28;20403;-70
2022/01/09 09:13:37;;;;;;;10.30;2.45;;;5.10;99.90;;;;;;5130247;27;20052;-70
2022/01/09 09:16:04;;;;;;;17.42;2.42;;;5.20;99.90;;;;;;5127183;27;20391;-70
2022/01/09 09:18:29;;;;;;;15.82;3.15;;;5.20;99.90;;;;;;5125907;28;20047;-70
2022/01/09 09:20:56;;;;;;;15.90;3.38;;;5.20;99.90;;;;;;5160248;27;20058;-70
2022/01/09 09:23:22;;;;;;;14.88;2.55;;;5.10;99.90;;;;;;5152301;27;20070;-70
2022/01/09 09:25:48;;;;;;;14.35;2.70;;;5.20;99.90;;;;;;5123110;28;20052;-70
2022/01/09 09:28:14;;;;;;;15.52;2.40;;;5.20;99.90;;;;;;5122150;28;20484;-70
2022/01/09 09:30:41;;;;;;;13.15;2.35;;;5.30;99.90;;;;;;5120903;28;20067;-70
2022/01/09 09:33:07;;;;;;;15.23;3.22;;;5.30;99.90;;;;;;5118779;28;20039;-70
2022/01/09 09:35:33;;;;;;;15.63;2.42;;;5.40;99.90;;;;;;5126925;28;20046;-69
2022/01/09 09:37:59;;;;;;;11.93;2.45;;;5.40;99.90;;;;;;5118652;28;20073;-70
2022/01/09 09:40:26;;;;;;;13.00;2.40;;;5.40;99.90;;;;;;5121627;28;20052;-71
2022/01/09 09:42:52;;;;;;;17.55;2.63;;;5.40;99.90;;;;;;5124473;27;20116;-69
2022/01/09 09:45:18;;;;;;;15.35;2.88;;;5.40;99.90;;;;;;5126228;28;20039;-69
2022/01/09 09:47:44;;;;;;;13.45;2.55;;;5.30;99.90;;;;;;5127112;28;20123;-68
2022/01/09 09:50:12;;;;;;;17.00;2.60;;;5.50;99.90;;;;;;5126228;28;20123;-68
2022/01/09 09:52:43;;;;;;;11.20;2.83;;;5.40;99.90;;;;;;5127902;28;20123;-68
2022/01/09 09:55:10;;;;;;;15.38;3.00;;;5.50;99.90;;;;;;5124098;28;20036;-67
2022/01/09 09:57:36;;;;;;;11.20;2.45;;;5.40;99.90;;;;;;5122456;28;20043;-67
2022/01/09 10:00:01;;;;;;;15.77;2.90;;;5.40;99.90;;;;;;5125562;28;20052;-67
2022/01/09 10:02:49;;;;;;;9.85;2.33;;;5.50;99.90;;;;;;5124391;28;20043;-67
2022/01/09 10:05:23;;;;;;;12.15;1.98;;;5.50;99.90;;;;;;5125905;28;20051;-68
2022/01/09 10:07:52;;;;;;;9.63;1.95;;;5.50;99.90;;;;;;5125898;28;20550;-67
2022/01/09 10:10:20;;;;;;;13.20;2.33;;;5.50;99.90;;;;;;5122820;28;20055;-67
2022/01/09 10:12:48;;;;;;;16.38;2.42;;;5.50;99.90;;;;;;5123760;28;20036;-68
2022/01/09 10:15:19;;;;;;;13.82;2.65;;;5.50;99.90;;;;;;5124845;28;20051;-69
2022/01/09 10:17:50;;;;;;;11.45;1.80;;;5.50;99.90;;;;;;5125785;28;20071;-69
2022/01/09 10:20:17;;;;;;;;;;;5.60;99.90;;;;;;5142080;27;20097;-69
2022/01/09 10:22:48;;;;;;;14.18;1.90;;;5.50;99.90;;;;;;5124590;28;20270;-73
2022/01/09 10:25:30;;;;;;;12.98;2.00;;;5.50;99.90;;;;;;5125887;28;20075;-72
2022/01/09 10:28:08;;;;;;;11.57;2.03;;;5.50;99.90;;;;;;5124003;28;20047;-70
2022/01/09 10:30:43;;;;;;;11.35;2.08;;;5.60;99.90;;;;;;5127381;28;20035;-66
2022/01/09 10:33:12;;;;;;;10.38;1.75;;;5.60;99.90;;;;;;5126414;28;20039;-66
2022/01/09 10:35:43;;;;;;;13.05;2.70;;;5.50;99.90;;;;;;5122579;28;20039;-66
2022/01/09 10:38:13;;;;;;;7.35;1.50;;;5.60;99.90;;;;;;5126525;28;20049;-66
2022/01/09 10:40:41;;;;;;;8.35;1.75;;;5.60;99.90;;;;;;5125938;28;20047;-66
2022/01/09 10:43:22;;;;;;;6.18;1.38;;;5.70;99.90;;;;;;5126939;28;20090;-66
2022/01/09 10:45:56;;;;;;;13.55;1.88;;;5.60;99.90;;;;;;5117580;28;20050;-66
2022/01/09 10:48:24;;;;;;;9.00;2.00;;;5.60;99.90;;;;;;5100278;28;20044;-66
2022/01/09 10:50:51;;;;;;;5.78;1.60;;;5.60;99.90;;;;;;5125468;28;20048;-66
2022/01/09 10:53:20;;;;;;;7.72;1.50;;;5.60;99.90;;;;;;5124592;28;20047;-68
2022/01/09 10:55:47;;;;;;;6.05;1.73;;;5.60;99.90;;;;;;5125860;28;20126;-65
2022/01/09 10:58:23;;;;;;;8.07;1.80;;;5.60;99.90;;;;;;5114798;28;20046;-64
2022/01/09 11:01:07;;;;;;;8.23;1.42;;;5.70;99.90;;;;;;5158502;27;20126;-68
2022/01/09 11:03:33;;;;;;;5.93;1.50;;;5.60;99.90;;;;;;5125707;28;20312;-66
2022/01/09 11:06:00;;;;;;;7.70;1.30;;;5.70;99.90;;;;;;5158670;27;20056;-66
2022/01/09 11:08:28;;;;;;;7.32;1.30;;;5.60;99.90;;;;;;5124524;28;20035;-66
2022/01/09 11:10:55;;;;;;;6.07;1.65;;;5.60;99.90;;;;;;5125866;27;20614;-66
2022/01/09 11:13:22;;;;;;;6.90;1.40;;;5.70;99.90;;;;;;5124200;28;20051;-66
2022/01/09 11:18:35;;;;;;;9.05;1.60;;;5.70;99.90;;;;;;5121990;28;20039;-68
2022/01/09 11:21:01;;;;;;;7.70;1.80;;;5.80;99.90;;;;;;5123762;28;20543;-67
2022/01/09 11:23:44;;;;;;;6.45;1.42;;;5.70;99.90;;;;;;5122200;28;20095;-67
2022/01/09 11:26:15;;;;;;;11.68;1.98;;;5.70;99.90;;;;;;5124699;28;20051;-67
2022/01/09 11:28:45;;;;;;;7.75;2.22;;;5.80;99.90;;;;;;5123579;28;20048;-67
2022/01/09 11:31:17;;;;;;;12.63;2.25;;;5.90;99.90;;;;;;5119693;28;20054;-67
2022/01/09 11:33:58;;;;;;;5.88;1.55;;;5.90;99.90;;;;;;5118870;28;20065;-67
2022/01/09 11:37:19;;;;;;;17.15;1.98;;;6.00;99.90;;;;;;5121109;28;20559;-67
2022/01/09 11:39:45;;;;;;;9.90;1.90;;;6.00;99.90;;;;;;5075737;28;20078;-67
2022/01/09 11:42:15;;;;;;;11.25;1.83;;;6.20;99.90;;;;;;5072410;28;20091;-67
2022/01/09 11:44:48;;;;;;;12.70;1.80;;;6.20;99.90;;;;;;5068817;28;20044;-67
2022/01/09 11:47:14;;;;;;;10.50;1.48;;;6.30;99.90;;;;;;5058734;28;20044;-67
2022/01/09 11:49:52;;;;;;;10.93;2.40;;;6.40;99.90;;;;;;5053597;28;20079;-67
2022/01/09 11:52:19;;;;;;;15.48;2.85;;;6.40;99.90;;;;;;5070332;28;20056;-67
2022/01/09 11:54:59;;;;;;;9.38;3.20;;;6.40;99.90;;;;;;5060211;28;20049;-67
2022/01/09 11:57:38;;;;;;;9.30;2.40;;;6.40;99.90;;;;;;5057306;28;20048;-67
2022/01/09 12:00:06;;;;;;;7.80;2.58;;;6.50;99.90;;;;;;5056534;28;20138;-67
2022/01/09 12:02:34;;;;;;;13.82;1.88;;;6.60;99.90;;;;;;5054265;28;20049;-67
2022/01/09 12:05:09;;;;;;;13.27;2.47;;;6.50;99.90;;;;;;5076439;28;20048;-67
2022/01/09 12:07:35;;;;;;;11.18;1.95;;;6.60;99.90;;;;;;5056181;28;20481;-67
2022/01/09 12:10:03;;;;;;;8.75;1.63;;;6.60;99.90;;;;;;5051732;28;20075;-67
2022/01/09 12:12:31;;;;;;;12.27;2.10;;;6.60;99.90;;;;;;5068431;28;20099;-67
2022/01/09 12:15:03;;;;;;;10.98;2.08;;;6.60;99.90;;;;;;5064931;28;20064;-67
2022/01/09 12:17:39;;;;;;;9.07;1.88;;;6.70;99.90;;;;;;5139075;28;20050;-67
2022/01/09 12:20:14;;;;;;;10.80;2.28;;;6.60;99.90;;;;;;5120525;28;20118;-67
2022/01/09 12:22:46;;;;;;;8.02;1.80;;;6.70;99.90;;;;;;5113067;28;20063;-67
2022/01/09 12:25:32;;;;;;;9.40;2.10;;;6.60;99.90;;;;;;5124877;28;20044;-67
2022/01/09 12:28:14;;;;;;;11.90;3.28;;;6.60;99.90;;;;;;5120162;28;20047;-67
2022/01/09 12:30:44;;;;;;;11.88;2.13;;;6.60;99.90;;;;;;5119989;28;20060;-67
2022/01/09 12:33:27;;;;;;;9.05;1.77;;;6.60;99.90;;;;;;5117437;28;20044;-67
2022/01/09 12:35:59;;;;;;;8.02;1.70;;;6.70;99.90;;;;;;5123348;28;20075;-67
2022/01/09 12:38:28;;;;;;;13.05;2.17;;;6.60;99.90;;;;;;5110925;28;20424;-67
2022/01/09 12:40:58;;;;;;;12.35;2.80;;;6.70;99.90;;;;;;5114493;28;20039;-67
2022/01/09 12:43:26;;;;;;;8.45;2.13;;;6.70;99.90;;;;;;5123835;28;20036;-67
2022/01/09 12:45:52;;;;;;;10.48;2.20;;;6.70;99.90;;;;;;5157423;27;20048;-67
2022/01/09 12:48:27;;;;;;;12.40;1.67;;;6.70;99.90;;;;;;5123440;28;20043;-67
2022/01/09 12:50:54;;;;;;;12.70;2.15;;;6.70;99.90;;;;;;5152598;27;20071;-67
2022/01/09 12:53:28;;;;;;;12.52;2.03;;;6.70;99.90;;;;;;5117364;28;20059;-67
2022/01/09 12:55:58;;;;;;;7.18;1.77;;;6.70;99.90;;;;;;5122358;28;20059;-67
2022/01/09 12:58:28;;;;;;;8.38;2.30;;;6.70;99.90;;;;;;5113941;28;20115;-67